createdAt,value
2019-03-12T00:02:51.345Z,3.70
2019-03-12T00:07:57.391Z,3.40
2019-03-12T00:13:04.281Z,3.80
2019-03-12T00:18:12.018Z,3.93
2019-03-12T00:23:19.168Z,3.67
2019-03-12T00:28:26.090Z,3.47
2019-03-12T00:33:34.952Z,4.63
2019-03-12T00:38:40.909Z,3.70
2019-03-12T00:43:45.989Z,3.40
2019-03-12T00:48:53.709Z,3.57
2019-03-12T00:53:59.749Z,2.70
2019-03-12T00:59:06.989Z,3.87
2019-03-12T01:04:14.889Z,3.40
2019-03-12T01:09:21.775Z,3.97
2019-03-12T01:14:27.507Z,3.83
2019-03-12T01:19:35.515Z,4.47
2019-03-12T01:24:41.415Z,4.27
2019-03-12T01:29:47.068Z,4.13
2019-03-12T01:34:54.462Z,3.80
2019-03-12T01:40:00.954Z,4.20
2019-03-12T01:45:08.396Z,4.73
2019-03-12T01:50:14.389Z,4.40
2019-03-12T01:55:20.384Z,4.40
2019-03-12T02:00:27.960Z,4.50
2019-03-12T02:05:35.118Z,5.17
2019-03-12T02:10:41.367Z,5.10
2019-03-12T02:15:47.385Z,4.83
2019-03-12T02:20:53.549Z,5.03
2019-03-12T02:25:58.680Z,5.13
2019-03-12T02:31:05.926Z,5.00
2019-03-12T02:36:13.150Z,5.20
2019-03-12T02:41:20.609Z,5.30
2019-03-12T02:46:28.844Z,4.83
2019-03-12T02:51:34.927Z,5.17
2019-03-12T02:56:41.606Z,5.53
2019-03-12T03:01:48.246Z,5.20
2019-03-12T03:07:24.910Z,4.63
2019-03-12T03:12:31.182Z,5.57
2019-03-12T03:17:39.900Z,4.93
2019-03-12T03:22:48.560Z,5.67
2019-03-12T03:27:55.448Z,5.70
2019-03-12T03:33:04.179Z,5.40
2019-03-12T03:38:11.534Z,5.93
2019-03-12T03:43:17.451Z,6.03
2019-03-12T03:49:04.276Z,5.80
2019-03-12T03:54:10.009Z,5.50
2019-03-12T03:59:20.924Z,5.80
2019-03-12T04:04:27.166Z,6.03
2019-03-12T04:09:35.705Z,4.90
2019-03-12T04:15:09.493Z,5.40
2019-03-12T04:20:36.795Z,4.60
2019-03-12T04:26:03.609Z,4.80
2019-03-12T04:31:09.909Z,4.50
2019-03-12T04:36:26.378Z,4.47
2019-03-12T04:41:34.063Z,4.67
2019-03-12T04:46:41.398Z,5.00
2019-03-12T04:51:46.996Z,4.30
2019-03-12T04:56:54.997Z,4.73
2019-03-12T05:02:00.353Z,4.10
2019-03-12T05:07:06.639Z,4.10
2019-03-12T05:12:13.252Z,4.03
2019-03-12T05:17:24.108Z,3.57
2019-03-12T05:22:32.067Z,4.17
2019-03-12T05:27:39.120Z,4.17
2019-03-12T05:32:45.456Z,4.33
2019-03-12T05:37:54.630Z,4.43
2019-03-12T05:43:00.412Z,4.50
2019-03-12T05:48:07.473Z,4.73
2019-03-12T05:53:17.763Z,4.63
2019-03-12T05:58:25.309Z,4.23
2019-03-12T06:03:31.884Z,3.83
2019-03-12T06:08:37.561Z,3.67
2019-03-12T06:13:43.776Z,3.27
2019-03-12T06:18:51.330Z,4.23
2019-03-12T06:23:57.753Z,4.40
2019-03-12T06:29:04.781Z,3.70
2019-03-12T06:34:14.349Z,3.67
2019-03-12T06:39:43.067Z,4.20
2019-03-12T06:44:58.814Z,3.67
2019-03-12T06:50:26.793Z,3.57
2019-03-12T06:55:58.463Z,3.60
2019-03-12T07:01:22.680Z,3.70
2019-03-12T07:06:53.917Z,3.83
2019-03-12T07:12:07.627Z,3.20
2019-03-12T07:17:38.121Z,3.73
2019-03-12T07:23:00.544Z,3.50
2019-03-12T07:28:31.849Z,3.53
2019-03-12T07:34:01.977Z,3.27
2019-03-12T07:39:27.949Z,3.63
2019-03-12T07:44:50.902Z,2.83
2019-03-12T07:50:14.620Z,3.17
2019-03-12T07:55:56.636Z,3.53
2019-03-12T08:01:36.339Z,3.57
2019-03-12T08:07:13.232Z,2.80
2019-03-12T08:12:37.849Z,2.40
2019-03-12T08:18:11.789Z,2.83
2019-03-12T08:23:35.498Z,3.17
2019-03-12T08:29:11.607Z,2.57
2019-03-12T08:34:34.532Z,2.47
2019-03-12T08:39:57.902Z,2.90
2019-03-12T08:45:22.879Z,3.67
2019-03-12T08:50:36.141Z,2.93
2019-03-12T08:56:03.926Z,2.77
2019-03-12T09:01:24.360Z,3.97
2019-03-12T09:06:40.497Z,2.80
2019-03-12T09:12:07.902Z,3.50
2019-03-12T09:17:34.408Z,3.53
2019-03-12T09:22:46.104Z,2.60
2019-03-12T09:28:13.056Z,2.77
2019-03-12T09:33:23.899Z,2.20
2019-03-12T09:38:53.372Z,2.50
2019-03-12T09:44:14.493Z,2.10
2019-03-12T09:49:30.112Z,2.73
2019-03-12T09:55:06.559Z,3.17
2019-03-12T10:00:26.360Z,2.77
2019-03-12T10:05:45.497Z,2.57
2019-03-12T10:11:09.631Z,2.93
2019-03-12T10:16:33.657Z,2.57
2019-03-12T10:22:09.530Z,2.80
2019-03-12T10:27:39.710Z,2.40
2019-03-12T10:33:10.840Z,2.73
2019-03-12T10:39:15.057Z,2.40
2019-03-12T10:44:30.269Z,2.47
2019-03-12T10:49:38.115Z,2.43
2019-03-12T10:54:44.899Z,2.77
2019-03-12T10:59:53.624Z,2.20
2019-03-12T11:05:00.446Z,2.43
2019-03-12T11:10:06.634Z,2.50
2019-03-12T11:15:12.488Z,1.83
2019-03-12T11:20:19.943Z,1.97
2019-03-12T11:25:27.633Z,2.20
2019-03-12T11:30:33.082Z,2.10
2019-03-12T11:35:39.689Z,1.90
2019-03-12T11:40:45.630Z,1.97
2019-03-12T11:45:50.981Z,2.00
2019-03-12T11:50:58.288Z,1.67
2019-03-12T11:56:04.695Z,2.23
2019-03-12T12:01:11.611Z,2.27
2019-03-12T12:06:17.920Z,1.83
2019-03-12T12:11:23.267Z,1.90
2019-03-12T12:16:28.437Z,2.30
2019-03-12T12:21:34.428Z,1.80
2019-03-12T12:26:41.102Z,1.67
2019-03-12T12:31:47.728Z,1.97
2019-03-12T12:36:53.989Z,1.60
2019-03-12T12:42:00.174Z,1.73
2019-03-12T12:47:06.444Z,1.73
2019-03-12T12:52:11.013Z,1.73
2019-03-12T12:57:16.570Z,2.20
2019-03-12T13:02:23.034Z,1.80
2019-03-12T13:07:28.803Z,2.07
2019-03-12T13:12:34.198Z,1.90
2019-03-12T13:17:41.495Z,1.90
2019-03-12T13:22:47.391Z,2.13
2019-03-12T13:27:53.445Z,2.10
2019-03-12T13:32:59.249Z,1.77
2019-03-12T13:38:04.758Z,2.20
2019-03-12T13:43:10.458Z,1.83
2019-03-12T13:48:17.814Z,2.03
2019-03-12T13:53:25.080Z,1.63
2019-03-12T13:58:31.391Z,1.37
2019-03-12T14:03:38.450Z,1.63
2019-03-12T14:08:44.335Z,1.93
2019-03-12T14:13:51.260Z,1.80
2019-03-12T14:18:57.017Z,1.73
2019-03-12T14:24:04.321Z,1.80
2019-03-12T14:29:10.161Z,1.70
2019-03-12T14:34:18.000Z,1.70
2019-03-12T14:39:23.832Z,1.63
2019-03-12T14:44:30.501Z,1.70
2019-03-12T14:49:37.476Z,2.00
2019-03-12T14:54:42.920Z,2.03
2019-03-12T14:59:48.799Z,1.43
2019-03-12T15:05:02.474Z,1.83
2019-03-12T15:10:11.551Z,1.67
2019-03-12T15:15:17.204Z,1.70
2019-03-12T15:20:25.581Z,1.77
2019-03-12T15:25:31.174Z,2.07
2019-03-12T15:30:36.538Z,1.80
2019-03-12T15:35:44.255Z,1.40
2019-03-12T15:40:50.436Z,1.57
2019-03-12T15:45:55.676Z,1.60
2019-03-12T15:51:03.279Z,1.73
2019-03-12T15:56:10.777Z,1.20
2019-03-12T16:01:16.227Z,1.70
2019-03-12T16:06:26.196Z,1.63
2019-03-12T16:11:31.479Z,1.73
2019-03-12T16:16:39.038Z,1.40
2019-03-12T16:21:46.035Z,1.47
2019-03-12T16:26:57.805Z,1.50
2019-03-12T16:32:02.935Z,1.80
2019-03-12T16:37:10.184Z,1.70
2019-03-12T16:42:15.852Z,2.00
2019-03-12T16:47:22.768Z,1.40
2019-03-12T16:52:30.577Z,1.73
2019-03-12T16:57:36.463Z,1.50
2019-03-12T17:02:50.761Z,1.50
2019-03-12T17:07:57.023Z,1.47
2019-03-12T17:13:03.074Z,1.50
2019-03-12T17:18:10.094Z,1.43
2019-03-12T17:23:17.069Z,1.50
2019-03-12T17:28:23.587Z,1.33
2019-03-12T17:33:30.697Z,1.30
2019-03-12T17:38:46.627Z,1.40
2019-03-12T17:43:45.080Z,1.40
2019-03-12T17:48:52.429Z,0.90
2019-03-12T17:53:59.870Z,1.17
2019-03-12T17:59:06.690Z,1.57
2019-03-12T18:04:12.772Z,1.40
2019-03-12T18:09:19.980Z,1.40
2019-03-12T18:14:38.008Z,1.47
2019-03-12T18:19:44.017Z,1.20
2019-03-12T18:24:48.938Z,1.70
2019-03-12T18:29:55.474Z,1.53
2019-03-12T18:35:01.111Z,1.50
2019-03-12T18:40:08.714Z,1.40
2019-03-12T18:45:18.498Z,1.63
2019-03-12T18:50:25.716Z,1.30
2019-03-12T18:55:58.797Z,1.30
2019-03-12T19:01:08.881Z,1.27
2019-03-12T19:06:14.458Z,1.63
2019-03-12T19:11:20.977Z,1.40
2019-03-12T19:16:27.318Z,1.40
2019-03-12T19:21:33.257Z,1.67
2019-03-12T19:26:39.395Z,1.70
2019-03-12T19:32:03.514Z,1.40
2019-03-12T19:37:10.016Z,1.33
2019-03-12T19:42:17.401Z,1.50
2019-03-12T19:47:23.950Z,1.57
2019-03-12T19:52:29.661Z,1.37
2019-03-12T19:57:37.689Z,1.87
2019-03-12T20:02:46.159Z,1.93
2019-03-12T20:08:12.475Z,1.20
2019-03-12T20:14:05.408Z,1.50
2019-03-12T20:19:56.159Z,1.60
2019-03-12T20:25:45.989Z,1.80
2019-03-12T20:31:44.149Z,1.50
2019-03-12T20:37:49.005Z,2.27
2019-03-12T20:43:49.470Z,1.40
2019-03-12T20:49:51.485Z,1.40
2019-03-12T20:55:50.954Z,1.40
2019-03-12T21:01:40.593Z,1.63
2019-03-12T21:07:31.341Z,2.20
2019-03-12T21:13:20.964Z,1.70
2019-03-12T21:19:19.462Z,1.50
2019-03-12T21:24:57.424Z,1.50
2019-03-12T21:30:01.408Z,1.93
2019-03-12T21:35:13.562Z,1.13
2019-03-12T21:40:19.722Z,0.60
2019-03-12T21:45:28.273Z,0.97
2019-03-12T21:50:34.551Z,0.60
2019-03-12T21:55:40.897Z,0.67
2019-03-12T22:00:48.857Z,1.17
2019-03-12T22:05:55.466Z,0.90
2019-03-12T22:11:02.925Z,1.20
2019-03-12T22:16:09.368Z,1.50
2019-03-12T22:21:19.670Z,1.97
2019-03-12T22:26:25.216Z,2.83
2019-03-12T22:31:31.554Z,3.90
2019-03-12T22:36:37.361Z,4.30
2019-03-12T22:41:43.699Z,3.90
2019-03-12T22:46:51.090Z,4.13
2019-03-12T22:51:57.875Z,3.90
2019-03-12T22:57:05.060Z,3.70
2019-03-12T23:02:11.426Z,3.83
2019-03-12T23:07:18.158Z,4.10
2019-03-12T23:12:24.449Z,3.70
2019-03-12T23:17:31.994Z,3.17
2019-03-12T23:22:38.179Z,3.20
2019-03-12T23:27:44.418Z,2.97
2019-03-12T23:32:50.794Z,3.00
2019-03-12T23:37:57.851Z,3.87
2019-03-12T23:43:04.221Z,3.80
2019-03-12T23:48:09.964Z,4.03
2019-03-12T23:53:15.983Z,3.80
2019-03-12T23:58:23.421Z,3.00
